createdAt,value
2023-04-16T00:00:37.550Z,102424.81
2023-04-16T00:03:04.201Z,102441.69
2023-04-16T00:05:31.060Z,102429.84
2023-04-16T00:07:57.514Z,102424.28
2023-04-16T00:10:24.025Z,102428.88
2023-04-16T00:12:50.510Z,102418.41
2023-04-16T00:15:16.999Z,102429.69
2023-04-16T00:17:43.510Z,102438.22
2023-04-16T00:20:10.408Z,102434.16
2023-04-16T00:22:37.132Z,102432.75
2023-04-16T00:25:03.871Z,102433.03
2023-04-16T00:27:30.376Z,102432.47
2023-04-16T00:29:56.891Z,102434.28
2023-04-16T00:32:23.424Z,102431.50
2023-04-16T00:34:49.853Z,102431.88
2023-04-16T00:37:16.484Z,102421.31
2023-04-16T00:39:42.968Z,102425.06
2023-04-16T00:42:09.777Z,102432.84
2023-04-16T00:44:36.210Z,102432.59
2023-04-16T00:47:03.357Z,102436.91
2023-04-16T00:49:30.817Z,102438.16
2023-04-16T00:51:57.612Z,102431.31
2023-04-16T00:54:25.643Z,102433.72
2023-04-16T00:56:52.221Z,102433.13
2023-04-16T00:59:18.772Z,102441.50
2023-04-16T01:01:45.236Z,102432.75
2023-04-16T01:04:12.000Z,102437.19
2023-04-16T01:06:38.559Z,102445.00
2023-04-16T01:09:05.728Z,102433.56
2023-04-16T01:11:32.665Z,102439.72
2023-04-16T01:13:59.162Z,102434.78
2023-04-16T01:16:26.959Z,102444.03
2023-04-16T01:18:53.602Z,102429.38
2023-04-16T01:21:20.050Z,102431.78
2023-04-16T01:23:46.506Z,102431.88
2023-04-16T01:26:12.968Z,102430.47
2023-04-16T01:28:39.739Z,102422.41
2023-04-16T01:31:06.237Z,102441.66
2023-04-16T01:33:32.737Z,102452.09
2023-04-16T01:35:59.228Z,102447.91
2023-04-16T01:38:25.683Z,102439.00
2023-04-16T01:40:57.331Z,102440.28
2023-04-16T01:43:23.800Z,102447.25
2023-04-16T01:45:50.331Z,102445.56
2023-04-16T01:48:16.940Z,102438.59
2023-04-16T01:50:43.518Z,102442.81
2023-04-16T01:53:10.068Z,102444.75
2023-04-16T01:55:36.544Z,102443.88
2023-04-16T01:58:03.204Z,102449.50
2023-04-16T02:00:29.778Z,102446.16
2023-04-16T02:02:56.582Z,102441.69
2023-04-16T02:05:23.205Z,102438.22
2023-04-16T02:07:49.755Z,102447.31
2023-04-16T02:10:16.509Z,102440.47
2023-04-16T02:12:43.237Z,102452.34
2023-04-16T02:15:10.161Z,102447.88
2023-04-16T02:17:36.834Z,102452.34
2023-04-16T02:20:05.660Z,102448.47
2023-04-16T02:22:32.165Z,102443.19
2023-04-16T02:24:58.600Z,102438.97
2023-04-16T02:27:25.105Z,102447.25
2023-04-16T02:29:51.541Z,102446.38
2023-04-16T02:32:18.440Z,102439.69
2023-04-16T02:34:44.901Z,102445.41
2023-04-16T02:37:11.558Z,102450.63
2023-04-16T02:39:38.121Z,102451.34
2023-04-16T02:42:04.703Z,102439.06
2023-04-16T02:44:31.172Z,102434.97
2023-04-16T02:46:57.792Z,102448.69
2023-04-16T02:49:24.242Z,102448.69
2023-04-16T02:51:50.708Z,102453.00
2023-04-16T02:54:17.159Z,102452.88
2023-04-16T02:56:43.640Z,102448.53
2023-04-16T02:59:10.448Z,102454.81
2023-04-16T03:01:37.169Z,102446.16
2023-04-16T03:04:03.872Z,102455.41
2023-04-16T03:06:31.443Z,102447.97
2023-04-16T03:08:58.001Z,102452.03
2023-04-16T03:11:24.485Z,102455.41
2023-04-16T03:13:51.261Z,102451.06
2023-04-16T03:16:17.723Z,102461.66
2023-04-16T03:18:44.221Z,102449.88
2023-04-16T03:21:10.734Z,102462.63
2023-04-16T03:23:37.237Z,102461.22
2023-04-16T03:26:03.841Z,102467.66
2023-04-16T03:28:30.391Z,102461.91
2023-04-16T03:30:56.934Z,102469.59
2023-04-16T03:33:23.508Z,102476.41
2023-04-16T03:35:57.267Z,102466.94
2023-04-16T03:38:25.749Z,102472.09
2023-04-16T03:40:52.215Z,102469.00
2023-04-16T03:43:18.800Z,102474.19
2023-04-16T03:45:46.306Z,102471.13
2023-04-16T03:48:13.622Z,102484.38
2023-04-16T03:50:40.167Z,102473.94
2023-04-16T03:53:06.692Z,102476.69
2023-04-16T03:55:33.141Z,102476.84
2023-04-16T03:58:03.032Z,102475.88
2023-04-16T04:00:30.487Z,102475.88
2023-04-16T04:02:57.261Z,102481.88
2023-04-16T04:05:24.096Z,102476.31
2023-04-16T04:07:50.654Z,102479.22
2023-04-16T04:10:17.276Z,102470.31
2023-04-16T04:12:44.176Z,102476.31
2023-04-16T04:15:11.619Z,102500.13
2023-04-16T04:17:38.195Z,102480.03
2023-04-16T04:20:05.370Z,102482.84
2023-04-16T04:22:31.908Z,102481.16
2023-04-16T04:24:58.554Z,102477.91
2023-04-16T04:27:25.096Z,102479.47
2023-04-16T04:29:51.620Z,102495.22
2023-04-16T04:32:18.220Z,102493.41
2023-04-16T04:34:44.782Z,102496.31
2023-04-16T04:37:11.411Z,102498.50
2023-04-16T04:39:37.994Z,102490.56
2023-04-16T04:42:04.527Z,102499.19
2023-04-16T04:44:31.257Z,102507.13
2023-04-16T04:46:57.713Z,102502.81
2023-04-16T04:49:24.205Z,102519.53
2023-04-16T04:51:50.935Z,102508.38
2023-04-16T04:54:17.412Z,102507.66
2023-04-16T04:56:45.881Z,102517.84
2023-04-16T04:59:12.743Z,102508.22
2023-04-16T05:01:39.377Z,102512.69
2023-04-16T05:04:06.422Z,102516.16
2023-04-16T05:06:32.977Z,102520.88
2023-04-16T05:08:59.462Z,102504.88
2023-04-16T05:11:26.123Z,102507.78
2023-04-16T05:13:52.577Z,102519.53
2023-04-16T05:16:19.177Z,102515.34
2023-04-16T05:18:45.626Z,102520.38
2023-04-16T05:21:12.085Z,102511.50
2023-04-16T05:23:38.653Z,102517.72
2023-04-16T05:26:05.285Z,102524.72
2023-04-16T05:28:32.055Z,102515.19
2023-04-16T05:30:58.567Z,102526.41
2023-04-16T05:33:25.227Z,102513.19
2023-04-16T05:35:52.019Z,102514.38
2023-04-16T05:38:18.480Z,102518.59
2023-04-16T05:40:44.959Z,102517.34
2023-04-16T05:43:11.466Z,102514.97
2023-04-16T05:45:41.187Z,102531.28
2023-04-16T05:48:11.295Z,102521.81
2023-04-16T05:50:38.035Z,102533.84
2023-04-16T05:53:06.650Z,102531.56
2023-04-16T05:55:33.561Z,102541.06
2023-04-16T05:58:00.143Z,102559.34
2023-04-16T06:00:27.199Z,102534.91
2023-04-16T06:02:53.824Z,102538.88
2023-04-16T06:05:20.754Z,102531.28
2023-04-16T06:07:47.349Z,102538.00
2023-04-16T06:10:13.923Z,102539.56
2023-04-16T06:12:40.489Z,102537.03
2023-04-16T06:15:07.668Z,102546.56
2023-04-16T06:17:34.182Z,102553.25
2023-04-16T06:20:00.921Z,102539.56
2023-04-16T06:22:27.518Z,102556.63
2023-04-16T06:24:54.083Z,102558.31
2023-04-16T06:27:20.796Z,102573.31
2023-04-16T06:29:47.372Z,102567.78
2023-04-16T06:32:13.956Z,102564.31
2023-04-16T06:34:40.657Z,102579.22
2023-04-16T06:37:09.843Z,102556.72
2023-04-16T06:39:37.287Z,102574.63
2023-04-16T06:42:04.401Z,102585.22
2023-04-16T06:44:30.894Z,102581.72
2023-04-16T06:46:57.426Z,102579.66
2023-04-16T06:49:23.939Z,102564.03
2023-04-16T06:51:50.521Z,102578.56
2023-04-16T06:54:17.126Z,102590.97
2023-04-16T06:56:43.668Z,102586.25
2023-04-16T06:59:11.217Z,102572.56
2023-04-16T07:01:37.884Z,102582.06
2023-04-16T07:04:04.630Z,102584.44
2023-04-16T07:06:32.210Z,102598.25
2023-04-16T07:08:58.724Z,102581.34
2023-04-16T07:11:26.471Z,102593.09
2023-04-16T07:13:53.919Z,102594.78
2023-04-16T07:16:20.954Z,102590.47
2023-04-16T07:18:47.582Z,102610.88
2023-04-16T07:21:14.034Z,102607.50
2023-04-16T07:23:40.567Z,102618.09
2023-04-16T07:26:06.993Z,102614.75
2023-04-16T07:28:33.465Z,102620.03
2023-04-16T07:31:00.301Z,102613.16
2023-04-16T07:33:27.321Z,102607.88
2023-04-16T07:35:53.864Z,102619.06
2023-04-16T07:38:20.636Z,102624.38
2023-04-16T07:40:48.610Z,102619.88
2023-04-16T07:43:16.566Z,102614.47
2023-04-16T07:45:43.051Z,102621.66
2023-04-16T07:48:09.528Z,102614.94
2023-04-16T07:50:36.430Z,102633.91
2023-04-16T07:53:03.773Z,102621.06
2023-04-16T07:55:30.450Z,102645.09
2023-04-16T07:57:57.055Z,102646.19
2023-04-16T08:00:23.550Z,102648.59
2023-04-16T08:02:50.543Z,102642.44
2023-04-16T08:05:17.195Z,102629.06
2023-04-16T08:07:43.673Z,102629.78
2023-04-16T08:10:10.338Z,102645.97
2023-04-16T08:12:36.924Z,102650.91
2023-04-16T08:15:03.669Z,102652.69
2023-04-16T08:17:30.306Z,102648.50
2023-04-16T08:19:56.889Z,102647.41
2023-04-16T08:22:23.428Z,102665.69
2023-04-16T08:24:49.955Z,102644.63
2023-04-16T08:27:19.641Z,102664.72
2023-04-16T08:29:47.595Z,102658.44
2023-04-16T08:32:14.206Z,102665.44
2023-04-16T08:34:41.947Z,102666.44
2023-04-16T08:37:08.573Z,102668.38
2023-04-16T08:39:35.465Z,102664.75
2023-04-16T08:42:05.561Z,102674.53
2023-04-16T08:44:35.301Z,102672.19
2023-04-16T08:47:02.425Z,102674.00
2023-04-16T08:49:29.898Z,102686.28
2023-04-16T08:51:57.240Z,102681.69
2023-04-16T08:54:57.253Z,102671.22
2023-04-16T08:57:26.945Z,102687.81
2023-04-16T08:59:55.962Z,102677.22
2023-04-16T09:02:23.070Z,102695.50
2023-04-16T09:04:50.725Z,102684.78
2023-04-16T09:07:19.556Z,102678.19
2023-04-16T09:09:48.534Z,102688.00
2023-04-16T09:12:15.487Z,102683.28
2023-04-16T09:14:43.123Z,102696.13
2023-04-16T09:17:10.589Z,102689.41
2023-04-16T09:19:37.099Z,102691.81
2023-04-16T09:22:03.650Z,102689.59
2023-04-16T09:24:30.508Z,102697.28
2023-04-16T09:26:57.567Z,102695.50
2023-04-16T09:29:40.868Z,102687.53
2023-04-16T09:32:09.226Z,102701.50
2023-04-16T09:34:54.318Z,102699.28
2023-04-16T09:37:21.053Z,102704.72
2023-04-16T09:40:04.358Z,102709.03
2023-04-16T09:42:37.286Z,102705.03
2023-04-16T09:45:06.062Z,102708.50
2023-04-16T09:47:41.543Z,102721.50
2023-04-16T09:50:11.310Z,102713.09
2023-04-16T09:52:39.105Z,102714.66
2023-04-16T09:55:06.238Z,102722.38
2023-04-16T09:57:32.722Z,102733.09
2023-04-16T10:00:07.819Z,102724.31
2023-04-16T10:02:35.023Z,102714.53
2023-04-16T10:05:03.149Z,102720.41
2023-04-16T10:07:33.440Z,102726.28
2023-04-16T10:10:00.599Z,102727.25
2023-04-16T10:12:28.791Z,102735.22
2023-04-16T10:14:55.323Z,102731.75
2023-04-16T10:17:22.208Z,102730.50
2023-04-16T10:19:49.116Z,102736.34
2023-04-16T10:22:15.581Z,102735.22
2023-04-16T10:24:42.815Z,102728.09
2023-04-16T10:27:09.465Z,102733.44
2023-04-16T10:29:36.998Z,102731.22
2023-04-16T10:32:04.263Z,102735.72
2023-04-16T10:34:31.464Z,102740.16
2023-04-16T10:36:58.053Z,102731.50
2023-04-16T10:39:27.806Z,102733.06
2023-04-16T10:42:11.973Z,102738.53
2023-04-16T10:44:41.898Z,102737.69
2023-04-16T10:47:12.666Z,102739.63
2023-04-16T10:49:39.459Z,102736.00
2023-04-16T10:52:13.485Z,102732.38
2023-04-16T10:54:41.000Z,102744.66
2023-04-16T10:57:10.461Z,102740.88
2023-04-16T10:59:39.549Z,102744.09
2023-04-16T11:02:13.677Z,102751.66
2023-04-16T11:04:43.229Z,102735.47
2023-04-16T11:07:16.554Z,102743.75
2023-04-16T11:10:05.793Z,102744.81
2023-04-16T11:12:42.650Z,102750.81
2023-04-16T11:15:14.374Z,102735.53
2023-04-16T11:17:51.754Z,102745.63
2023-04-16T11:20:25.210Z,102745.91
2023-04-16T11:22:56.660Z,102745.19
2023-04-16T11:25:34.176Z,102744.09
2023-04-16T11:28:02.524Z,102753.03
2023-04-16T11:30:31.018Z,102740.03
2023-04-16T11:32:57.695Z,102749.97
2023-04-16T11:35:24.300Z,102752.41
2023-04-16T11:37:56.280Z,102749.22
2023-04-16T11:40:23.423Z,102743.91
2023-04-16T11:42:49.922Z,102755.97
2023-04-16T11:45:18.208Z,102763.38
2023-04-16T11:47:52.695Z,102755.22
2023-04-16T11:50:21.967Z,102750.31
2023-04-16T11:52:49.521Z,102747.56
2023-04-16T11:55:16.080Z,102758.34
2023-04-16T11:57:42.758Z,102745.91
2023-04-16T12:00:13.996Z,102753.59
2023-04-16T12:02:43.422Z,102748.16
2023-04-16T12:05:34.975Z,102759.22
2023-04-16T12:08:03.971Z,102762.69
2023-04-16T12:10:34.910Z,102759.91
2023-04-16T12:13:15.153Z,102771.78
2023-04-16T12:15:45.928Z,102762.84
2023-04-16T12:18:12.623Z,102760.19
2023-04-16T12:20:41.884Z,102770.81
2023-04-16T12:23:08.938Z,102768.88
2023-04-16T12:25:35.535Z,102771.94
2023-04-16T12:28:02.244Z,102776.72
2023-04-16T12:30:29.644Z,102772.66
2023-04-16T12:33:16.565Z,102781.75
2023-04-16T12:35:45.838Z,102770.81
2023-04-16T12:38:15.036Z,102775.59
2023-04-16T12:40:41.841Z,102781.75
2023-04-16T12:43:09.817Z,102776.44
2023-04-16T12:45:37.173Z,102769.88
2023-04-16T12:48:03.894Z,102778.50
2023-04-16T12:50:30.564Z,102775.47
2023-04-16T12:52:57.924Z,102782.56
2023-04-16T12:55:24.952Z,102774.75
2023-04-16T12:57:53.079Z,102774.19
2023-04-16T13:00:20.528Z,102780.78
2023-04-16T13:02:47.258Z,102785.81
2023-04-16T13:05:16.555Z,102783.16
2023-04-16T13:07:43.214Z,102778.66
2023-04-16T13:10:10.221Z,102772.53
2023-04-16T13:12:36.753Z,102777.72
2023-04-16T13:15:03.411Z,102761.34
2023-04-16T13:17:29.935Z,102772.81
2023-04-16T13:19:56.456Z,102775.47
2023-04-16T13:22:23.006Z,102783.75
2023-04-16T13:24:49.951Z,102778.72
2023-04-16T13:27:16.862Z,102768.47
2023-04-16T13:29:43.376Z,102775.34
2023-04-16T13:32:09.987Z,102772.69
2023-04-16T13:34:36.647Z,102770.47
2023-04-16T13:37:03.174Z,102770.03
2023-04-16T13:39:29.712Z,102772.28
2023-04-16T13:41:56.250Z,102774.50
2023-04-16T13:44:22.753Z,102764.44
2023-04-16T13:46:49.741Z,102782.63
2023-04-16T13:49:16.630Z,102772.41
2023-04-16T13:51:44.620Z,102784.97
2023-04-16T13:54:12.477Z,102772.13
2023-04-16T13:56:39.788Z,102772.13
2023-04-16T13:59:06.413Z,102766.81
2023-04-16T14:01:33.086Z,102776.19
2023-04-16T14:04:06.082Z,102780.94
2023-04-16T14:06:33.981Z,102779.00
2023-04-16T14:09:01.214Z,102778.84
2023-04-16T14:11:27.869Z,102780.09
2023-04-16T14:13:54.663Z,102767.22
2023-04-16T14:16:21.214Z,102767.78
2023-04-16T14:18:47.747Z,102775.91
2023-04-16T14:21:14.248Z,102778.13
2023-04-16T14:23:41.177Z,102767.50
2023-04-16T14:26:08.128Z,102764.00
2023-04-16T14:28:35.936Z,102765.41
2023-04-16T14:31:02.396Z,102764.13
2023-04-16T14:33:29.018Z,102770.31
2023-04-16T14:35:55.595Z,102771.81
2023-04-16T14:38:22.101Z,102766.78
2023-04-16T14:40:48.863Z,102760.50
2023-04-16T14:43:15.504Z,102771.94
2023-04-16T14:45:42.168Z,102777.56
2023-04-16T14:48:08.821Z,102771.28
2023-04-16T14:50:38.994Z,102771.56
2023-04-16T14:53:05.782Z,102767.06
2023-04-16T14:55:32.727Z,102775.91
2023-04-16T14:57:59.870Z,102766.38
2023-04-16T15:00:27.401Z,102772.81
2023-04-16T15:02:54.991Z,102757.53
2023-04-16T15:05:22.136Z,102766.34
2023-04-16T15:07:48.756Z,102763.16
2023-04-16T15:10:15.563Z,102765.94
2023-04-16T15:12:42.150Z,102760.75
2023-04-16T15:15:09.681Z,102758.50
2023-04-16T15:17:36.240Z,102757.09
2023-04-16T15:20:06.508Z,102752.03
2023-04-16T15:22:33.011Z,102756.53
2023-04-16T15:24:59.715Z,102748.13
2023-04-16T15:27:26.562Z,102762.00
2023-04-16T15:29:53.968Z,102759.06
2023-04-16T15:32:20.917Z,102764.66
2023-04-16T15:34:47.577Z,102773.09
2023-04-16T15:37:14.543Z,102761.06
2023-04-16T15:39:41.293Z,102772.25
2023-04-16T15:42:08.257Z,102763.31
2023-04-16T15:44:34.784Z,102775.34
2023-04-16T15:47:01.367Z,102768.06
2023-04-16T15:49:27.963Z,102759.25
2023-04-16T15:51:55.593Z,102777.88
2023-04-16T15:54:22.304Z,102768.22
2023-04-16T15:56:48.897Z,102762.19
2023-04-16T15:59:15.547Z,102765.41
2023-04-16T16:01:42.101Z,102751.84
2023-04-16T16:04:08.931Z,102762.44
2023-04-16T16:06:37.988Z,102764.00
2023-04-16T16:09:04.992Z,102774.06
2023-04-16T16:11:32.587Z,102778.16
2023-04-16T16:14:01.488Z,102761.66
2023-04-16T16:16:28.652Z,102765.28
2023-04-16T16:18:55.419Z,102765.41
2023-04-16T16:21:22.117Z,102757.28
2023-04-16T16:23:48.705Z,102761.91
2023-04-16T16:26:15.237Z,102764.44
2023-04-16T16:28:43.848Z,102757.31
2023-04-16T16:31:12.243Z,102758.81
2023-04-16T16:33:40.456Z,102763.59
2023-04-16T16:36:10.756Z,102761.91
2023-04-16T16:38:37.996Z,102767.50
2023-04-16T16:41:04.765Z,102751.16
2023-04-16T16:43:31.436Z,102755.91
2023-04-16T16:45:57.973Z,102753.53
2023-04-16T16:48:24.485Z,102751.84
2023-04-16T16:50:51.115Z,102759.53
2023-04-16T16:53:17.773Z,102764.56
2023-04-16T16:55:44.260Z,102762.88
2023-04-16T16:58:11.176Z,102761.31
2023-04-16T17:00:37.972Z,102777.41
2023-04-16T17:03:04.677Z,102768.03
2023-04-16T17:05:31.342Z,102774.19
2023-04-16T17:07:57.838Z,102771.09
2023-04-16T17:10:25.216Z,102772.91
2023-04-16T17:12:51.975Z,102772.75
2023-04-16T17:15:21.481Z,102767.72
2023-04-16T17:17:48.722Z,102773.66
2023-04-16T17:20:15.718Z,102780.78
2023-04-16T17:22:42.484Z,102786.19
2023-04-16T17:25:09.539Z,102784.91
2023-04-16T17:27:36.280Z,102786.16
2023-04-16T17:30:05.407Z,102790.75
2023-04-16T17:32:33.032Z,102781.06
2023-04-16T17:35:01.468Z,102792.69
2023-04-16T17:37:28.520Z,102798.97
2023-04-16T17:39:55.037Z,102804.03
2023-04-16T17:42:21.723Z,102805.00
2023-04-16T17:44:48.227Z,102800.53
2023-04-16T17:47:14.783Z,102812.84
2023-04-16T17:49:41.293Z,102817.28
2023-04-16T17:52:07.896Z,102814.63
2023-04-16T17:54:34.386Z,102814.50
2023-04-16T17:57:02.106Z,102824.16
2023-04-16T17:59:28.897Z,102815.59
2023-04-16T18:01:56.597Z,102831.53
2023-04-16T18:04:23.601Z,102835.22
2023-04-16T18:06:50.504Z,102830.72
2023-04-16T18:09:17.163Z,102832.19
2023-04-16T18:11:43.717Z,102825.28
2023-04-16T18:14:11.686Z,102826.84
2023-04-16T18:16:38.808Z,102842.78
2023-04-16T18:19:05.544Z,102843.13
2023-04-16T18:21:32.167Z,102848.69
2023-04-16T18:24:00.959Z,102846.56
2023-04-16T18:26:29.654Z,102840.09
2023-04-16T18:28:56.783Z,102841.31
2023-04-16T18:31:23.274Z,102835.03
2023-04-16T18:33:57.549Z,102854.72
2023-04-16T18:36:26.579Z,102861.56
2023-04-16T18:39:15.642Z,102853.53
2023-04-16T18:41:41.672Z,102851.25
2023-04-16T18:44:10.678Z,102858.94
2023-04-16T18:46:37.195Z,102873.06
2023-04-16T18:49:03.772Z,102856.56
2023-04-16T18:51:30.311Z,102866.44
2023-04-16T18:53:57.059Z,102877.03
2023-04-16T18:56:23.602Z,102877.03
2023-04-16T18:58:50.135Z,102874.78
2023-04-16T19:01:17.975Z,102878.06
2023-04-16T19:03:45.539Z,102876.00
2023-04-16T19:06:12.215Z,102884.34
2023-04-16T19:08:38.730Z,102874.50
2023-04-16T19:11:05.207Z,102890.84
2023-04-16T19:13:32.317Z,102876.91
2023-04-16T19:16:00.465Z,102874.25
2023-04-16T19:18:27.266Z,102881.34
2023-04-16T19:21:00.806Z,102887.50
2023-04-16T19:23:27.895Z,102888.47
2023-04-16T19:25:56.285Z,102879.91
2023-04-16T19:28:23.709Z,102881.59
2023-04-16T19:30:54.336Z,102883.03
2023-04-16T19:33:20.905Z,102884.94
2023-04-16T19:35:47.559Z,102884.13
2023-04-16T19:38:14.153Z,102884.84
2023-04-16T19:40:43.254Z,102868.34
2023-04-16T19:43:09.784Z,102884.13
2023-04-16T19:45:36.448Z,102888.56
2023-04-16T19:48:03.289Z,102882.44
2023-04-16T19:50:30.040Z,102885.19
2023-04-16T19:52:56.753Z,102881.97
2023-04-16T19:55:23.255Z,102893.16
2023-04-16T19:57:50.045Z,102895.69
2023-04-16T20:00:17.073Z,102888.94
2023-04-16T20:02:43.834Z,102899.31
2023-04-16T20:05:10.520Z,102888.00
2023-04-16T20:07:37.042Z,102882.22
2023-04-16T20:10:03.737Z,102893.03
2023-04-16T20:12:30.253Z,102887.13
2023-04-16T20:14:56.728Z,102897.63
2023-04-16T20:17:23.279Z,102898.34
2023-04-16T20:19:51.182Z,102897.38
2023-04-16T20:22:18.779Z,102905.31
2023-04-16T20:24:47.755Z,102896.66
2023-04-16T20:27:15.406Z,102889.19
2023-04-16T20:29:42.192Z,102882.53
2023-04-16T20:32:08.745Z,102899.16
2023-04-16T20:34:36.507Z,102886.41
2023-04-16T20:37:02.981Z,102895.94
2023-04-16T20:39:31.462Z,102903.88
2023-04-16T20:41:57.933Z,102882.22
2023-04-16T20:44:33.276Z,102896.19
2023-04-16T20:47:00.081Z,102891.13
2023-04-16T20:49:26.738Z,102892.69
2023-04-16T20:51:53.434Z,102883.19
2023-04-16T20:54:20.015Z,102882.94
2023-04-16T20:56:46.785Z,102884.97
2023-04-16T20:59:13.569Z,102877.78
2023-04-16T21:01:40.216Z,102886.09
2023-04-16T21:04:07.200Z,102880.44
2023-04-16T21:06:38.347Z,102867.09
2023-04-16T21:09:06.050Z,102882.75
2023-04-16T21:11:34.746Z,102882.38
2023-04-16T21:14:02.372Z,102876.50
2023-04-16T21:16:29.206Z,102879.63
2023-04-16T21:18:56.406Z,102869.03
2023-04-16T21:21:23.585Z,102876.72
2023-04-16T21:23:50.746Z,102874.91
2023-04-16T21:26:17.351Z,102867.66
2023-04-16T21:28:43.897Z,102879.22
2023-04-16T21:31:10.410Z,102886.34
2023-04-16T21:33:36.884Z,102879.63
2023-04-16T21:36:03.584Z,102878.16
2023-04-16T21:38:30.046Z,102874.56
2023-04-16T21:40:56.903Z,102881.53
2023-04-16T21:43:23.874Z,102882.50
2023-04-16T21:45:53.807Z,102874.09
2023-04-16T21:48:21.216Z,102880.19
2023-04-16T21:50:47.844Z,102883.00
2023-04-16T21:53:14.336Z,102868.56
2023-04-16T21:55:42.174Z,102881.66
2023-04-16T21:58:08.621Z,102886.00
2023-04-16T22:00:35.165Z,102865.44
2023-04-16T22:03:01.848Z,102877.09
2023-04-16T22:05:28.955Z,102885.41
2023-04-16T22:07:55.756Z,102888.06
2023-04-16T22:10:22.638Z,102887.91
2023-04-16T22:12:49.372Z,102880.84
2023-04-16T22:15:15.922Z,102875.63
2023-04-16T22:17:42.531Z,102871.31
2023-04-16T22:20:12.297Z,102865.69
2023-04-16T22:22:42.773Z,102869.63
2023-04-16T22:25:10.010Z,102883.25
2023-04-16T22:27:37.384Z,102872.91
2023-04-16T22:30:05.178Z,102871.78
2023-04-16T22:32:33.087Z,102866.75
2023-04-16T22:34:59.559Z,102874.59
2023-04-16T22:37:26.089Z,102872.91
2023-04-16T22:39:52.622Z,102874.81
2023-04-16T22:42:19.115Z,102883.72
2023-04-16T22:44:45.638Z,102882.88
2023-04-16T22:47:12.186Z,102871.91
2023-04-16T22:49:38.749Z,102878.53
2023-04-16T22:52:05.540Z,102885.00
2023-04-16T22:54:32.700Z,102885.72
2023-04-16T22:56:59.201Z,102878.25
2023-04-16T22:59:25.872Z,102869.25
2023-04-16T23:01:52.501Z,102874.78
2023-04-16T23:04:19.281Z,102873.59
2023-04-16T23:06:46.457Z,102874.06
2023-04-16T23:09:13.238Z,102871.91
2023-04-16T23:11:39.976Z,102888.50
2023-04-16T23:14:06.531Z,102884.41
2023-04-16T23:16:33.065Z,102876.47
2023-04-16T23:18:59.648Z,102874.78
2023-04-16T23:21:26.331Z,102888.97
2023-04-16T23:23:52.852Z,102885.38
2023-04-16T23:26:19.306Z,102882.97
2023-04-16T23:28:45.791Z,102886.56
2023-04-16T23:31:12.282Z,102883.31
2023-04-16T23:33:38.889Z,102893.53
2023-04-16T23:36:05.609Z,102889.81
2023-04-16T23:38:32.162Z,102895.00
2023-04-16T23:40:58.641Z,102891.16
2023-04-16T23:43:25.204Z,102886.34
2023-04-16T23:45:51.719Z,102897.41
2023-04-16T23:48:18.226Z,102900.78
2023-04-16T23:50:44.739Z,102888.97
2023-04-16T23:53:11.220Z,102899.31
2023-04-16T23:55:37.810Z,102893.66
2023-04-16T23:58:04.350Z,102892.81
